createdAt,value
2023-04-30T00:00:11.275Z,13.90
2023-04-30T00:03:00.439Z,13.91
2023-04-30T00:05:30.946Z,13.91
2023-04-30T00:07:59.578Z,13.92
2023-04-30T00:10:28.463Z,13.90
2023-04-30T00:12:57.297Z,13.87
2023-04-30T00:15:26.281Z,13.88
2023-04-30T00:17:55.004Z,13.83
2023-04-30T00:20:23.981Z,13.80
2023-04-30T00:22:54.050Z,13.79
2023-04-30T00:25:24.693Z,13.80
2023-04-30T00:27:53.477Z,13.80
2023-04-30T00:30:22.435Z,13.79
2023-04-30T00:32:51.154Z,13.78
2023-04-30T00:35:20.156Z,13.78
2023-04-30T00:37:48.973Z,13.73
2023-04-30T00:40:19.486Z,13.75
2023-04-30T00:42:48.720Z,13.76
2023-04-30T00:45:22.041Z,13.74
2023-04-30T00:47:51.393Z,13.74
2023-04-30T00:50:21.212Z,13.72
2023-04-30T00:52:50.068Z,13.50
2023-04-30T00:55:21.623Z,13.54
2023-04-30T00:57:50.531Z,13.64
2023-04-30T01:00:20.269Z,13.72
2023-04-30T01:02:50.286Z,13.69
2023-04-30T01:05:19.328Z,13.71
2023-04-30T01:07:48.153Z,13.73
2023-04-30T01:10:19.925Z,13.75
2023-04-30T01:12:57.538Z,13.74
2023-04-30T01:15:37.576Z,13.77
2023-04-30T01:18:14.840Z,13.76
2023-04-30T01:20:51.596Z,13.73
2023-04-30T01:23:43.438Z,13.76
2023-04-30T01:26:29.563Z,13.75
2023-04-30T01:29:04.000Z,13.80
2023-04-30T01:31:32.996Z,13.72
2023-04-30T01:34:01.693Z,13.77
2023-04-30T01:36:52.152Z,13.81
2023-04-30T01:39:57.886Z,13.82
2023-04-30T01:42:38.076Z,13.84
2023-04-30T01:45:28.546Z,13.82
2023-04-30T01:48:09.811Z,13.75
2023-04-30T01:50:49.481Z,13.79
2023-04-30T01:53:29.830Z,13.78
2023-04-30T01:56:03.598Z,13.75
2023-04-30T01:58:34.794Z,13.76
2023-04-30T02:01:05.008Z,13.73
2023-04-30T02:03:34.565Z,13.70
2023-04-30T02:06:04.073Z,13.62
2023-04-30T02:08:33.027Z,13.65
2023-04-30T02:11:01.632Z,13.57
2023-04-30T02:13:30.723Z,13.54
2023-04-30T02:15:59.575Z,13.56
2023-04-30T02:18:29.863Z,13.60
2023-04-30T02:20:58.530Z,13.53
2023-04-30T02:23:27.484Z,13.42
2023-04-30T02:25:56.143Z,13.38
2023-04-30T02:28:25.158Z,13.33
2023-04-30T02:30:53.784Z,13.41
2023-04-30T02:33:22.695Z,13.26
2023-04-30T02:35:52.720Z,13.29
2023-04-30T02:38:22.257Z,13.37
2023-04-30T02:40:51.019Z,13.14
2023-04-30T02:43:20.113Z,13.05
2023-04-30T02:45:49.154Z,13.15
2023-04-30T02:48:18.405Z,12.94
2023-04-30T02:50:47.322Z,12.97
2023-04-30T02:53:18.131Z,13.07
2023-04-30T02:55:47.306Z,13.08
2023-04-30T02:58:16.298Z,13.09
2023-04-30T03:00:44.937Z,13.14
2023-04-30T03:03:14.542Z,13.18
2023-04-30T03:05:43.222Z,13.18
2023-04-30T03:08:12.926Z,13.19
2023-04-30T03:10:43.028Z,13.13
2023-04-30T03:13:11.901Z,13.09
2023-04-30T03:15:40.635Z,13.09
2023-04-30T03:18:09.612Z,13.10
2023-04-30T03:20:38.429Z,13.13
2023-04-30T03:23:07.451Z,13.13
2023-04-30T03:25:36.077Z,13.09
2023-04-30T03:28:06.612Z,13.11
2023-04-30T03:30:35.303Z,13.05
2023-04-30T03:33:06.647Z,13.03
2023-04-30T03:35:35.864Z,13.01
2023-04-30T03:38:05.190Z,12.95
2023-04-30T03:40:33.826Z,12.87
2023-04-30T03:43:02.783Z,12.82
2023-04-30T03:45:32.874Z,12.76
2023-04-30T03:48:01.979Z,12.49
2023-04-30T03:50:30.974Z,12.34
2023-04-30T03:52:59.930Z,12.19
2023-04-30T03:55:28.917Z,12.07
2023-04-30T03:57:58.479Z,12.04
2023-04-30T04:00:27.603Z,11.91
2023-04-30T04:03:00.367Z,11.79
2023-04-30T04:05:30.320Z,11.83
2023-04-30T04:07:59.207Z,11.77
2023-04-30T04:10:27.991Z,11.70
2023-04-30T04:12:57.477Z,11.72
2023-04-30T04:15:26.157Z,11.71
2023-04-30T04:17:56.892Z,11.68
2023-04-30T04:20:25.741Z,11.72
2023-04-30T04:22:54.880Z,11.67
2023-04-30T04:25:25.246Z,11.70
2023-04-30T04:27:54.368Z,11.71
2023-04-30T04:30:22.970Z,11.75
2023-04-30T04:32:53.984Z,11.75
2023-04-30T04:35:24.317Z,11.74
2023-04-30T04:37:53.341Z,11.77
2023-04-30T04:40:22.113Z,11.79
2023-04-30T04:42:52.481Z,11.78
2023-04-30T04:45:21.670Z,11.77
2023-04-30T04:47:52.243Z,11.76
2023-04-30T04:50:21.299Z,11.62
2023-04-30T04:52:51.714Z,11.69
2023-04-30T04:55:20.629Z,11.68
2023-04-30T04:57:49.624Z,11.69
2023-04-30T05:00:19.379Z,11.67
2023-04-30T05:02:48.844Z,11.73
2023-04-30T05:05:18.208Z,11.68
2023-04-30T05:07:47.239Z,11.70
2023-04-30T05:10:17.666Z,11.74
2023-04-30T05:12:46.581Z,11.75
2023-04-30T05:15:15.394Z,11.77
2023-04-30T05:17:44.377Z,11.84
2023-04-30T05:20:14.547Z,11.87
2023-04-30T05:22:43.482Z,11.89
2023-04-30T05:25:12.243Z,11.81
2023-04-30T05:27:42.657Z,11.89
2023-04-30T05:30:12.874Z,12.00
2023-04-30T05:32:41.824Z,12.11
2023-04-30T05:35:11.261Z,12.09
2023-04-30T05:37:40.160Z,12.10
2023-04-30T05:40:10.559Z,12.07
2023-04-30T05:42:40.942Z,12.11
2023-04-30T05:45:12.382Z,12.13
2023-04-30T05:47:41.622Z,12.20
2023-04-30T05:50:11.476Z,12.16
2023-04-30T05:52:40.483Z,12.25
2023-04-30T05:55:11.065Z,12.26
2023-04-30T05:57:40.117Z,12.24
2023-04-30T06:00:12.550Z,12.22
2023-04-30T06:02:41.970Z,12.30
2023-04-30T06:05:12.874Z,12.32
2023-04-30T06:07:43.660Z,12.38
2023-04-30T06:10:12.993Z,12.39
2023-04-30T06:12:42.044Z,12.39
2023-04-30T06:15:12.586Z,12.35
2023-04-30T06:17:41.697Z,12.29
2023-04-30T06:20:11.521Z,12.32
2023-04-30T06:22:41.233Z,12.51
2023-04-30T06:25:11.065Z,12.82
2023-04-30T06:27:39.976Z,12.91
2023-04-30T06:30:12.006Z,13.04
2023-04-30T06:32:41.492Z,13.32
2023-04-30T06:35:11.105Z,13.47
2023-04-30T06:37:40.491Z,13.26
2023-04-30T06:40:10.458Z,13.15
2023-04-30T06:42:39.419Z,13.17
2023-04-30T06:45:09.742Z,13.33
2023-04-30T06:47:41.835Z,13.25
2023-04-30T06:50:11.477Z,13.31
2023-04-30T06:52:40.662Z,13.56
2023-04-30T06:55:09.925Z,13.83
2023-04-30T06:57:39.910Z,14.07
2023-04-30T07:00:09.954Z,14.19
2023-04-30T07:02:40.394Z,14.31
2023-04-30T07:05:11.282Z,14.16
2023-04-30T07:07:40.276Z,14.18
2023-04-30T07:10:09.835Z,14.33
2023-04-30T07:12:38.791Z,14.42
2023-04-30T07:15:09.176Z,14.45
2023-04-30T07:17:41.842Z,14.51
2023-04-30T07:20:13.119Z,14.75
2023-04-30T07:22:44.496Z,14.84
2023-04-30T07:25:13.321Z,14.83
2023-04-30T07:27:42.534Z,14.59
2023-04-30T07:30:11.566Z,14.43
2023-04-30T07:32:42.807Z,14.67
2023-04-30T07:35:11.733Z,14.67
2023-04-30T07:37:41.637Z,14.62
2023-04-30T07:40:22.018Z,14.69
2023-04-30T07:42:57.870Z,14.47
2023-04-30T07:45:26.631Z,14.60
2023-04-30T07:47:56.986Z,14.64
2023-04-30T07:50:25.684Z,14.63
2023-04-30T07:52:54.763Z,14.77
2023-04-30T07:55:23.565Z,15.14
2023-04-30T07:57:52.491Z,15.15
2023-04-30T08:00:21.431Z,15.06
2023-04-30T08:02:50.861Z,14.77
2023-04-30T08:05:21.502Z,14.92
2023-04-30T08:07:50.486Z,15.11
2023-04-30T08:10:19.211Z,15.17
2023-04-30T08:12:48.124Z,15.31
2023-04-30T08:15:16.820Z,15.25
2023-04-30T08:17:45.872Z,15.18
2023-04-30T08:20:14.675Z,15.15
2023-04-30T08:22:45.795Z,15.15
2023-04-30T08:25:15.016Z,15.04
2023-04-30T08:27:43.985Z,15.05
2023-04-30T08:30:13.265Z,15.07
2023-04-30T08:32:42.542Z,15.05
2023-04-30T08:35:11.801Z,14.98
2023-04-30T08:37:40.773Z,14.97
2023-04-30T08:40:14.053Z,15.02
2023-04-30T08:42:51.435Z,15.22
2023-04-30T08:45:20.962Z,15.28
2023-04-30T08:47:51.538Z,15.17
2023-04-30T08:50:20.631Z,15.09
2023-04-30T08:52:49.959Z,15.13
2023-04-30T08:55:20.130Z,15.21
2023-04-30T08:57:49.054Z,15.35
2023-04-30T09:00:18.017Z,15.35
2023-04-30T09:02:49.375Z,15.31
2023-04-30T09:05:18.121Z,15.26
2023-04-30T09:10:22.997Z,15.20
2023-04-30T09:13:03.020Z,15.20
2023-04-30T09:15:33.826Z,15.16
2023-04-30T09:18:12.349Z,15.46
2023-04-30T09:20:57.291Z,15.69
2023-04-30T09:23:27.042Z,16.12
2023-04-30T09:25:57.982Z,16.52
2023-04-30T09:28:28.829Z,16.98
2023-04-30T09:30:58.981Z,17.22
2023-04-30T09:33:28.165Z,17.47
2023-04-30T09:35:57.092Z,17.52
2023-04-30T09:38:31.258Z,17.58
2023-04-30T09:41:03.106Z,17.61
2023-04-30T09:43:32.577Z,17.72
2023-04-30T09:46:01.571Z,18.02
2023-04-30T09:48:30.542Z,18.45
2023-04-30T09:50:59.548Z,18.90
2023-04-30T09:53:29.253Z,19.06
2023-04-30T09:56:07.984Z,18.92
2023-04-30T09:58:39.333Z,18.94
2023-04-30T10:01:11.428Z,19.19
2023-04-30T10:03:43.808Z,19.35
2023-04-30T10:06:15.683Z,19.05
2023-04-30T10:08:47.973Z,19.35
2023-04-30T10:11:22.765Z,20.02
2023-04-30T10:13:59.333Z,19.54
2023-04-30T10:16:40.457Z,19.23
2023-04-30T10:19:15.711Z,19.24
2023-04-30T10:21:47.436Z,19.32
2023-04-30T10:24:19.476Z,19.42
2023-04-30T10:26:51.055Z,19.34
2023-04-30T10:29:20.677Z,19.30
2023-04-30T10:31:52.796Z,19.33
2023-04-30T10:34:34.436Z,19.50
2023-04-30T10:37:12.267Z,19.80
2023-04-30T10:39:41.873Z,20.41
2023-04-30T10:42:13.306Z,20.86
2023-04-30T10:44:42.661Z,20.97
2023-04-30T10:47:11.626Z,20.98
2023-04-30T10:49:43.096Z,21.05
2023-04-30T10:52:12.843Z,20.81
2023-04-30T10:54:50.536Z,20.70
2023-04-30T10:57:23.196Z,20.17
2023-04-30T11:00:25.684Z,20.15
2023-04-30T11:03:00.802Z,19.94
2023-04-30T11:05:38.798Z,19.61
2023-04-30T11:08:12.601Z,19.31
2023-04-30T11:11:00.129Z,19.24
2023-04-30T11:13:30.491Z,19.08
2023-04-30T11:16:05.351Z,18.88
2023-04-30T11:18:34.589Z,18.92
2023-04-30T11:21:04.999Z,19.09
2023-04-30T11:23:40.303Z,19.07
2023-04-30T11:26:11.533Z,19.17
2023-04-30T11:28:56.678Z,19.18
2023-04-30T11:31:35.113Z,19.43
2023-04-30T11:34:04.568Z,19.42
2023-04-30T11:36:35.041Z,19.68
2023-04-30T11:39:08.024Z,19.86
2023-04-30T11:41:42.715Z,20.14
2023-04-30T11:44:27.181Z,20.62
2023-04-30T11:46:56.775Z,20.65
2023-04-30T11:49:25.615Z,21.00
2023-04-30T11:51:54.863Z,20.82
2023-04-30T11:54:24.137Z,20.65
2023-04-30T11:56:53.206Z,19.72
2023-04-30T11:59:21.930Z,18.96
2023-04-30T12:01:52.616Z,18.39
2023-04-30T12:04:21.943Z,17.88
2023-04-30T12:06:51.563Z,17.58
2023-04-30T12:09:20.277Z,17.28
2023-04-30T12:11:49.906Z,16.99
2023-04-30T12:14:18.665Z,16.81
2023-04-30T12:16:53.246Z,16.77
2023-04-30T12:19:25.279Z,16.57
2023-04-30T12:21:55.782Z,16.51
2023-04-30T12:24:28.790Z,16.56
2023-04-30T12:27:01.972Z,16.50
2023-04-30T12:29:30.803Z,16.41
2023-04-30T12:32:01.389Z,16.37
2023-04-30T12:34:33.821Z,16.31
2023-04-30T12:37:03.677Z,16.39
2023-04-30T12:39:35.380Z,16.19
2023-04-30T12:42:05.004Z,16.13
2023-04-30T12:44:44.013Z,16.13
2023-04-30T12:47:15.584Z,16.07
2023-04-30T12:49:47.092Z,16.04
2023-04-30T12:52:16.833Z,16.04
2023-04-30T12:54:45.509Z,16.07
2023-04-30T12:57:14.683Z,16.16
2023-04-30T13:00:00.928Z,16.17
2023-04-30T13:02:32.299Z,16.44
2023-04-30T13:05:01.399Z,16.49
2023-04-30T13:07:39.606Z,16.54
2023-04-30T13:10:09.739Z,16.41
2023-04-30T13:12:38.697Z,16.31
2023-04-30T13:15:08.749Z,16.30
2023-04-30T13:17:39.617Z,16.31
2023-04-30T13:20:10.755Z,16.45
2023-04-30T13:22:39.744Z,16.49
2023-04-30T13:25:09.547Z,16.33
2023-04-30T13:27:38.567Z,16.40
2023-04-30T13:30:09.167Z,16.56
2023-04-30T13:32:39.548Z,16.56
2023-04-30T13:35:10.343Z,16.57
2023-04-30T13:37:39.937Z,16.50
2023-04-30T13:40:10.378Z,16.65
2023-04-30T13:42:42.583Z,16.94
2023-04-30T13:45:12.678Z,17.36
2023-04-30T13:47:43.196Z,17.45
2023-04-30T13:50:13.273Z,17.39
2023-04-30T13:52:42.302Z,17.44
2023-04-30T13:55:11.395Z,17.30
2023-04-30T13:57:40.421Z,17.30
2023-04-30T14:00:10.857Z,17.19
2023-04-30T14:02:40.013Z,17.30
2023-04-30T14:05:11.247Z,17.65
2023-04-30T14:07:40.152Z,17.66
2023-04-30T14:10:09.972Z,17.42
2023-04-30T14:12:38.899Z,17.28
2023-04-30T14:15:08.863Z,17.09
2023-04-30T14:17:37.954Z,16.96
2023-04-30T14:20:11.336Z,16.87
2023-04-30T14:22:40.522Z,16.78
2023-04-30T14:25:10.832Z,16.80
2023-04-30T14:27:42.106Z,16.77
2023-04-30T14:30:11.926Z,16.72
2023-04-30T14:32:40.944Z,16.87
2023-04-30T14:35:11.597Z,16.88
2023-04-30T14:37:40.590Z,16.90
2023-04-30T14:40:11.829Z,16.94
2023-04-30T14:42:40.826Z,16.91
2023-04-30T14:45:11.512Z,16.97
2023-04-30T14:47:40.780Z,16.97
2023-04-30T14:50:11.931Z,17.04
2023-04-30T14:52:42.183Z,16.91
2023-04-30T14:55:11.118Z,16.99
2023-04-30T14:57:41.052Z,16.99
2023-04-30T15:00:12.144Z,16.93
2023-04-30T15:02:41.207Z,16.87
2023-04-30T15:05:12.213Z,16.77
2023-04-30T15:07:41.140Z,16.71
2023-04-30T15:10:11.463Z,16.60
2023-04-30T15:12:40.555Z,16.65
2023-04-30T15:15:10.541Z,16.63
2023-04-30T15:17:39.670Z,16.57
2023-04-30T15:20:11.541Z,16.52
2023-04-30T15:22:40.737Z,16.49
2023-04-30T15:25:10.563Z,16.46
2023-04-30T15:27:41.317Z,16.45
2023-04-30T15:30:11.459Z,16.48
2023-04-30T15:32:40.583Z,16.46
2023-04-30T15:35:11.330Z,16.53
2023-04-30T15:37:40.228Z,16.52
2023-04-30T15:40:14.189Z,16.55
2023-04-30T15:42:43.224Z,16.59
2023-04-30T15:45:12.409Z,16.57
2023-04-30T15:47:41.813Z,16.57
2023-04-30T15:50:12.651Z,16.47
2023-04-30T15:52:41.713Z,16.54
2023-04-30T15:55:11.375Z,16.41
2023-04-30T15:57:40.330Z,16.62
2023-04-30T16:00:11.118Z,16.69
2023-04-30T16:02:43.282Z,16.77
2023-04-30T16:05:13.386Z,16.86
2023-04-30T16:07:43.871Z,16.87
2023-04-30T16:10:13.270Z,16.83
2023-04-30T16:12:42.398Z,16.82
2023-04-30T16:15:12.551Z,16.78
2023-04-30T16:17:41.640Z,16.79
2023-04-30T16:20:13.308Z,16.85
2023-04-30T16:22:42.551Z,16.93
2023-04-30T16:25:12.039Z,16.89
2023-04-30T16:27:41.168Z,16.76
2023-04-30T16:30:11.309Z,16.71
2023-04-30T16:32:40.388Z,16.77
2023-04-30T16:35:10.602Z,16.81
2023-04-30T16:37:41.160Z,16.73
2023-04-30T16:40:11.443Z,16.56
2023-04-30T16:42:40.396Z,16.35
2023-04-30T16:45:10.792Z,16.11
2023-04-30T16:47:40.472Z,15.94
2023-04-30T16:50:10.487Z,15.82
2023-04-30T16:52:40.770Z,15.75
2023-04-30T16:55:10.364Z,15.57
2023-04-30T16:57:39.294Z,15.46
2023-04-30T17:00:14.242Z,15.36
2023-04-30T17:02:45.675Z,15.22
2023-04-30T17:05:14.963Z,15.12
2023-04-30T17:07:45.735Z,15.04
2023-04-30T17:10:15.049Z,15.03
2023-04-30T17:12:44.454Z,15.01
2023-04-30T17:15:13.387Z,14.95
2023-04-30T17:17:42.399Z,14.91
2023-04-30T17:20:12.428Z,14.85
2023-04-30T17:22:41.403Z,14.71
2023-04-30T17:25:12.527Z,14.71
2023-04-30T17:27:41.499Z,14.66
2023-04-30T17:30:10.980Z,14.61
2023-04-30T17:32:40.030Z,14.56
2023-04-30T17:35:09.203Z,14.54
2023-04-30T17:37:38.211Z,14.50
2023-04-30T17:40:09.067Z,14.44
2023-04-30T17:42:39.985Z,14.40
2023-04-30T17:45:09.937Z,14.36
2023-04-30T17:47:39.741Z,14.27
2023-04-30T17:50:09.714Z,14.21
2023-04-30T17:52:39.357Z,14.12
2023-04-30T17:55:09.813Z,14.06
2023-04-30T17:57:40.119Z,14.01
2023-04-30T18:00:10.460Z,13.99
2023-04-30T18:02:43.319Z,13.93
2023-04-30T18:05:12.856Z,13.87
2023-04-30T18:07:41.796Z,13.86
2023-04-30T18:10:11.064Z,13.82
2023-04-30T18:12:42.029Z,13.80
2023-04-30T18:15:13.181Z,13.76
2023-04-30T18:17:42.665Z,13.72
2023-04-30T18:20:13.005Z,13.67
2023-04-30T18:22:43.546Z,13.58
2023-04-30T18:25:14.103Z,13.52
2023-04-30T18:27:44.908Z,13.48
2023-04-30T18:30:14.097Z,13.45
2023-04-30T18:32:44.265Z,13.38
2023-04-30T18:35:13.097Z,13.31
2023-04-30T18:37:42.080Z,13.22
2023-04-30T18:40:11.890Z,13.12
2023-04-30T18:42:40.868Z,13.03
2023-04-30T18:45:12.214Z,12.98
2023-04-30T18:47:41.337Z,12.79
2023-04-30T18:50:15.322Z,12.62
2023-04-30T18:52:45.226Z,12.49
2023-04-30T18:55:14.446Z,12.45
2023-04-30T18:57:43.835Z,12.43
2023-04-30T19:00:15.321Z,12.33
2023-04-30T19:02:44.595Z,12.24
2023-04-30T19:05:14.231Z,12.19
2023-04-30T19:07:43.346Z,12.20
2023-04-30T19:10:12.313Z,12.18
2023-04-30T19:12:43.920Z,12.11
2023-04-30T19:15:15.627Z,11.99
2023-04-30T19:17:44.669Z,11.90
2023-04-30T19:20:14.287Z,11.83
2023-04-30T19:22:43.658Z,11.74
2023-04-30T19:25:12.627Z,11.63
2023-04-30T19:27:41.609Z,11.57
2023-04-30T19:30:11.661Z,11.52
2023-04-30T19:32:42.122Z,11.47
2023-04-30T19:35:11.454Z,11.42
2023-04-30T19:37:40.414Z,11.36
2023-04-30T19:40:11.870Z,11.29
2023-04-30T19:42:41.189Z,11.20
2023-04-30T19:45:11.576Z,11.15
2023-04-30T19:47:41.982Z,11.11
2023-04-30T19:50:11.534Z,11.06
2023-04-30T19:52:40.479Z,10.97
2023-04-30T19:55:10.328Z,10.90
2023-04-30T19:57:39.304Z,10.83
2023-04-30T20:00:12.991Z,10.76
2023-04-30T20:02:43.738Z,10.71
2023-04-30T20:05:12.558Z,10.66
2023-04-30T20:07:42.241Z,10.59
2023-04-30T20:10:11.605Z,10.52
2023-04-30T20:12:40.595Z,10.47
2023-04-30T20:15:10.392Z,10.39
2023-04-30T20:17:39.395Z,10.36
2023-04-30T20:20:10.992Z,10.32
2023-04-30T20:22:40.010Z,10.23
2023-04-30T20:25:10.090Z,10.18
2023-04-30T20:27:39.033Z,10.10
2023-04-30T20:30:10.944Z,10.08
2023-04-30T20:32:40.461Z,10.04
2023-04-30T20:35:11.182Z,10.01
2023-04-30T20:37:40.299Z,9.99
2023-04-30T20:40:10.642Z,9.93
2023-04-30T20:42:40.776Z,9.86
2023-04-30T20:45:11.472Z,9.82
2023-04-30T20:47:41.612Z,9.79
2023-04-30T20:50:12.165Z,9.77
2023-04-30T20:52:41.435Z,9.70
2023-04-30T20:55:11.109Z,9.66
2023-04-30T20:57:40.238Z,9.61
2023-04-30T21:00:10.661Z,9.48
2023-04-30T21:02:39.823Z,9.39
2023-04-30T21:05:11.223Z,9.39
2023-04-30T21:07:40.324Z,9.37
2023-04-30T21:10:09.875Z,9.31
2023-04-30T21:12:38.881Z,9.28
2023-04-30T21:15:09.189Z,9.24
2023-04-30T21:17:38.321Z,9.21
2023-04-30T21:20:08.878Z,9.20
2023-04-30T21:22:40.696Z,9.16
2023-04-30T21:25:12.256Z,9.05
2023-04-30T21:27:41.270Z,9.04
2023-04-30T21:30:10.852Z,8.97
2023-04-30T21:32:39.917Z,8.94
2023-04-30T21:35:09.066Z,8.86
2023-04-30T21:37:39.379Z,8.85
2023-04-30T21:40:09.636Z,8.83
2023-04-30T21:42:38.601Z,8.78
2023-04-30T21:45:09.692Z,8.75
2023-04-30T21:47:38.696Z,8.75
2023-04-30T21:50:09.492Z,8.74
2023-04-30T21:52:39.774Z,8.69
2023-04-30T21:55:10.076Z,8.61
2023-04-30T21:57:39.098Z,8.57
2023-04-30T22:00:14.351Z,8.52
2023-04-30T22:02:50.708Z,8.45
2023-04-30T22:05:21.207Z,8.42
2023-04-30T22:07:51.593Z,8.41
2023-04-30T22:10:20.554Z,8.40
2023-04-30T22:12:49.541Z,8.38
2023-04-30T22:15:18.165Z,8.35
2023-04-30T22:17:47.702Z,8.31
2023-04-30T22:20:16.747Z,8.32
2023-04-30T22:22:45.720Z,8.33
2023-04-30T22:25:17.615Z,8.30
2023-04-30T22:27:48.498Z,8.30
2023-04-30T22:30:17.534Z,8.30
2023-04-30T22:32:46.504Z,8.24
2023-04-30T22:35:17.576Z,8.28
2023-04-30T22:37:46.654Z,8.23
2023-04-30T22:40:17.940Z,8.20
2023-04-30T22:42:47.024Z,8.21
2023-04-30T22:45:16.309Z,8.23
2023-04-30T22:47:45.890Z,8.23
2023-04-30T22:50:14.625Z,8.23
2023-04-30T22:52:43.712Z,8.21
2023-04-30T22:55:12.486Z,8.23
2023-04-30T22:57:42.818Z,8.20
2023-04-30T23:00:13.079Z,8.14
2023-04-30T23:02:43.727Z,8.13
2023-04-30T23:05:12.892Z,8.10
2023-04-30T23:07:42.038Z,8.09
2023-04-30T23:10:12.053Z,8.12
2023-04-30T23:12:42.481Z,8.19
2023-04-30T23:15:11.577Z,8.20
2023-04-30T23:17:40.637Z,8.20
2023-04-30T23:20:10.883Z,8.24
2023-04-30T23:22:39.949Z,8.24
2023-04-30T23:25:09.371Z,8.29
2023-04-30T23:27:38.373Z,8.31
2023-04-30T23:30:10.899Z,8.34
2023-04-30T23:32:39.954Z,8.37
2023-04-30T23:35:10.145Z,8.36
2023-04-30T23:37:39.070Z,8.38
2023-04-30T23:40:10.240Z,8.36
2023-04-30T23:42:39.382Z,8.33
2023-04-30T23:45:11.240Z,8.33
2023-04-30T23:47:40.168Z,8.35
2023-04-30T23:50:10.748Z,8.36
2023-04-30T23:52:39.677Z,8.36
2023-04-30T23:55:09.660Z,8.38
2023-04-30T23:57:38.611Z,8.34
